Latest Weather Observations for Gannett Cay

IDQ60801

Issued at 8:35 pm EST Tuesday 30 September 2014 (issued every 30 minutes, with the page automatically refreshed every 10 minutes)

About weather observations | Map of weather stations | Latest weather observations for QLD | Other Formats
Station Details ID: 200831 Name: GANNET CAY Lat: -21.98 Lon: 152.47 Height: 2.3 m
Data from the previous 72 hours. | See also: Recent months for locations in Queensland
Date/Time
EST
Temp
°C
App
Temp
°C
Dew
Point
Rel
Hum
%
Delta-T
°C
Wind Press
QNH
hPa
Press
MSL
hPa
Rain
since 9 am
mm
Dir
 
Spd
km/h
Gust
km/h
Spd
kts
Gust
kts
30/08:30pm 22.1 - - - - E 20 24 11 13 1019.3 - -
30/08:26pm 22.0 - - - - E 19 22 10 12 1019.3 1019.4 -
30/08:00pm 22.0 - - - - E 24 26 13 14 1019.1 - -
30/07:30pm 22.0 - - - - E 20 28 11 15 1018.6 - -
30/07:26pm 22.0 - - - - E 19 - 10 - - 1018.7 -
30/07:00pm 21.9 - - - - ESE 20 26 11 14 1018.4 - -
30/06:30pm 21.9 - - - - ESE 19 22 10 12 1018.1 - -
30/06:26pm 21.9 - - - - ESE 20 - 11 - - 1018.1 -
30/06:00pm 22.0 - - - - ESE 20 30 11 16 1017.8 - -
30/05:30pm 22.3 - - - - ESE 19 22 10 12 1017.6 - -
30/05:26pm 22.2 - - - - E 20 - 11 - - 1017.7 -
30/05:00pm 22.5 - - - - SE 19 22 10 12 1017.4 - -
30/04:30pm 22.4 - - - - SE 19 22 10 12 1017.4 - -
30/04:26pm 22.5 - - - - SE 19 - 10 - - 1017.5 -
30/04:00pm 22.4 - - - - SE 19 22 10 12 1017.3 - -
30/03:30pm 22.5 - - - - SE 20 24 11 13 1017.3 - -
30/03:26pm 22.5 - - - - SE 19 - 10 - - 1017.4 -
30/03:00pm 22.7 - - - - SE 19 24 10 13 1017.4 - -
30/02:30pm 22.9 - - - - SE 13 17 7 9 1017.6 - -
30/02:26pm 22.9 - - - - SE 13 - 7 - - 1017.7 -
30/02:00pm 22.8 - - - - SE 15 17 8 9 1017.8 - -
30/01:30pm 22.8 - - - - SE 15 19 8 10 1018.1 - -
30/01:26pm 22.8 - - - - SE 15 - 8 - - 1018.3 -
30/01:00pm 22.7 - - - - ESE 15 19 8 10 1018.4 - -
30/12:30pm 22.7 - - - - E 15 17 8 9 1019.0 - -
30/12:26pm 22.7 - - - - E 13 - 7 - - 1019.1 -
30/12:00pm 22.6 - - - - E 15 17 8 9 1019.4 - -
30/11:30am 22.5 - - - - E 15 19 8 10 1019.9 - -
30/11:26am 22.3 - - - - E 15 - 8 - - 1020.0 -
30/11:00am 22.1 - - - - E 15 19 8 10 1020.2 - -
30/10:30am 22.2 - - - - E 17 20 9 11 1020.5 - -
30/10:26am 22.1 - - - - E 17 - 9 - - 1020.6 -
30/10:00am 22.0 - - - - ENE 19 20 10 11 1020.7 - -
30/09:30am 21.8 - - - - ENE 17 20 9 11 1020.8 - -
30/09:26am 21.8 - - - - ENE 19 - 10 - - 1020.9 -
30/09:00am 21.8 - - - - ENE 20 24 11 13 1020.8 - -
30/08:30am 21.8 - - - - ENE 22 28 12 15 1020.7 - -
30/08:26am 21.7 - - - - ENE 24 - 13 - - 1020.8 -
30/08:00am 21.8 - - - - ENE 26 30 14 16 1020.4 - -
30/07:30am 21.9 - - - - ENE 24 28 13 15 1020.1 - -
30/07:26am 21.8 - - - - ENE 26 - 14 - - 1020.2 -
30/07:00am 22.0 - - - - E 20 24 11 13 1019.8 - -
30/06:30am 21.9 - - - - E 24 30 13 16 1019.5 - -
30/06:26am 21.9 - - - - E 26 - 14 - - 1019.6 -
30/06:00am 21.7 - - - - E 30 35 16 19 1019.2 - -
30/05:30am 21.7 - - - - E 22 26 12 14 1018.9 - -
30/05:26am 21.8 - - - - E 24 - 13 - - 1019.0 -
30/05:00am 21.7 - - - - E 30 33 16 18 1018.6 - -
30/04:30am 22.0 - - - - E 22 28 12 15 1018.3 - -
30/04:26am 21.9 - - - - ENE 22 - 12 - - 1018.4 -
30/04:00am 21.9 - - - - ENE 22 28 12 15 1018.1 - -
30/03:30am 21.7 - - - - ENE 17 20 9 11 1018.0 - -
30/03:26am 21.7 - - - - ENE 17 - 9 - - 1018.1 -
30/03:00am 21.6 - - - - ENE 17 20 9 11 1017.9 - -
30/02:30am 21.6 - - - - ENE 20 24 11 13 1018.1 - -
30/02:26am 21.6 - - - - ENE 22 - 12 - - 1018.3 -
30/02:00am 21.7 - - - - ENE 26 30 14 16 1018.3 - -
30/01:30am 21.8 - - - - E 28 33 15 18 1018.4 - -
30/01:26am 21.7 - - - - E 26 - 14 - - 1018.4 -
30/01:00am 21.9 - - - - E 26 32 14 17 1018.5 - -
30/12:30am 22.1 - - - - E 30 35 16 19 1018.7 - -
30/12:26am 22.1 - - - - E 32 - 17 - - 1018.8 -
30/12:00am 22.1 - - - - E 26 28 14 15 1018.9 - -
 
Date/Time
EST
Temp
°C
App
Temp
°C
Dew
Point
Rel
Hum
%
Delta-T
°C
Wind Press
QNH
hPa
Press
MSL
hPa
Rain
since 9 am
mm
Dir
 
Spd
km/h
Gust
km/h
Spd
kts
Gust
kts
29/11:30pm 22.2 - - - - E 26 32 14 17 1019.2 - -
29/11:26pm 22.1 - - - - E 28 - 15 - - 1019.3 -
29/11:00pm 21.8 - - - - ESE 32 39 17 21 1019.4 - -
29/10:30pm 21.7 - - - - ESE 32 35 17 19 1019.5 - -
29/10:26pm 21.8 - - - - ESE 32 - 17 - - 1019.5 -
29/10:00pm 21.8 - - - - ESE 32 35 17 19 1019.4 - -
29/09:30pm 21.8 - - - - ESE 32 35 17 19 1019.4 - -
29/09:26pm 21.7 - - - - ESE 30 - 16 - - 1019.6 -
29/09:00pm 21.7 - - - - ESE 30 35 16 19 1019.4 - -
29/08:30pm 22.0 - - - - ESE 24 28 13 15 1019.3 - -
29/08:26pm 22.1 - - - - ESE 24 - 13 - - 1019.4 -
29/08:00pm 22.0 - - - - SE 24 30 13 16 1019.0 - -
29/07:30pm 21.9 - - - - SE 26 30 14 16 1018.8 - -
29/07:26pm 21.8 - - - - SE 28 - 15 - - 1018.9 -
29/07:00pm 21.9 - - - - ESE 30 33 16 18 1018.6 - -
29/06:30pm 21.8 - - - - SE 30 35 16 19 1018.2 - -
29/06:26pm 21.9 - - - - SE 30 - 16 - - 1018.2 -
29/06:00pm 21.9 - - - - ESE 28 33 15 18 1017.8 - -
29/05:30pm 21.8 - - - - SE 28 32 15 17 1017.3 - -
29/05:26pm 21.9 - - - - SE 28 - 15 - - 1017.4 -
29/05:00pm 22.1 - - - - SE 28 33 15 18 1017.1 - -
29/04:30pm 22.1 - - - - SE 28 32 15 17 1016.7 - -
29/04:26pm 22.1 - - - - SE 28 - 15 - - 1016.8 -
29/04:00pm 22.2 - - - - SE 28 32 15 17 1016.7 - -
29/03:30pm 22.3 - - - - SSE 28 32 15 17 1016.7 - -
29/03:26pm 22.2 - - - - SE 26 - 14 - - 1016.8 -
29/03:00pm 22.3 - - - - SE 26 30 14 16 1016.8 - -
29/02:30pm 22.2 - - - - SSE 26 33 14 18 1017.0 - -
29/02:26pm 22.4 - - - - SE 26 - 14 - - 1017.1 -
29/02:00pm 22.4 - - - - SE 26 30 14 16 1017.3 - -
29/01:30pm 22.5 - - - - SE 28 32 15 17 1017.5 - -
29/01:26pm 22.4 - - - - SE 28 - 15 - - 1017.6 -
29/01:00pm 22.3 - - - - SE 26 30 14 16 1017.9 - -
29/12:30pm 22.3 - - - - SE 28 30 15 16 1018.1 - -
29/12:26pm 22.3 - - - - SE 28 - 15 - - 1018.3 -
29/12:00pm 22.4 - - - - ESE 26 32 14 17 1018.5 - -
29/11:30am 22.4 - - - - ESE 26 32 14 17 1018.8 - -
29/11:26am 22.3 - - - - ESE 26 - 14 - - 1018.9 -
29/11:00am 22.4 - - - - E 30 35 16 19 1019.1 - -
29/10:30am 22.3 - - - - ESE 30 35 16 19 1019.4 - -
29/10:26am 22.1 - - - - ESE 30 - 16 - - 1019.6 -
29/10:00am 22.0 - - - - SE 30 37 16 20 1019.7 - -
29/09:30am 21.8 - - - - ESE 33 39 18 21 1019.6 - -
29/09:26am 21.8 - - - - SE 33 - 18 - - 1019.7 -
29/09:00am 21.8 - - - - ESE 35 41 19 22 1019.6 - -
29/08:30am 21.6 - - - - ESE 35 43 19 23 1019.4 - -
29/08:26am 21.6 - - - - ESE 35 - 19 - - 1019.5 -
29/08:00am 21.7 - - - - ESE 35 43 19 23 1019.4 - -
29/07:30am 21.6 - - - - ESE 33 39 18 21 1019.2 - -
29/07:26am 21.6 - - - - ESE 33 - 18 - - 1019.3 -
29/07:00am 21.6 - - - - ESE 35 41 19 22 1018.9 - -
29/06:30am 21.6 - - - - ESE 33 39 18 21 1018.8 - -
29/06:26am 21.4 - - - - ESE 33 - 18 - - 1018.8 -
29/06:00am 21.4 - - - - ESE 37 43 20 23 1018.3 - -
29/05:30am 21.4 - - - - E 37 43 20 23 1017.9 - -
29/05:26am 21.3 - - - - E 35 - 19 - - 1018.0 -
29/05:00am 21.3 - - - - ESE 32 39 17 21 1017.8 - -
29/04:30am 21.2 - - - - E 32 37 17 20 1017.6 - -
29/04:26am 21.3 - - - - ESE 32 - 17 - - 1017.7 -
29/04:00am 21.4 - - - - ESE 30 35 16 19 1017.6 - -
29/03:30am 21.4 - - - - ESE 35 39 19 21 1017.5 - -
29/03:26am 21.6 - - - - ESE 33 - 18 - - 1017.6 -
29/03:00am 21.5 - - - - ESE 35 39 19 21 1017.4 - -
29/02:30am 21.6 - - - - ESE 35 39 19 21 1017.6 - -
29/02:26am 21.3 - - - - ESE 35 - 19 - - 1017.6 -
29/02:00am 20.9 - - - - ESE 37 52 20 28 1017.8 - -
29/01:30am 21.5 - - - - ESE 30 41 16 22 1018.2 - -
29/01:26am 21.7 - - - - ESE 28 - 15 - - 1018.3 -
29/01:00am 21.9 - - - - ESE 33 39 18 21 1018.4 - -
29/12:30am 21.9 - - - - ESE 35 41 19 22 1018.5 - -
29/12:26am 21.8 - - - - ESE 37 - 20 - - 1018.6 -
29/12:00am 21.9 - - - - ESE 32 39 17 21 1018.6 - -
 
Date/Time
EST
Temp
°C
App
Temp
°C
Dew
Point
Rel
Hum
%
Delta-T
°C
Wind Press
QNH
hPa
Press
MSL
hPa
Rain
since 9 am
mm
Dir
 
Spd
km/h
Gust
km/h
Spd
kts
Gust
kts
28/11:30pm 21.8 - - - - ESE 32 35 17 19 1018.9 - -
28/11:26pm 21.9 - - - - ESE 32 - 17 - - 1019.1 -
28/11:00pm 21.8 - - - - ESE 30 33 16 18 1019.1 - -
28/10:30pm 22.0 - - - - ESE 32 37 17 20 1019.2 - -
28/10:26pm 21.8 - - - - ESE 30 - 16 - - 1019.3 -
28/10:00pm 21.8 - - - - ESE 32 35 17 19 1019.2 - -
28/09:30pm 21.8 - - - - ESE 28 35 15 19 1019.3 - -
28/09:26pm 22.0 - - - - ESE 28 - 15 - - 1019.3 -
28/09:00pm 21.8 - - - - ESE 28 32 15 17 1019.1 - -
28/08:30pm 21.7 - - - - ESE 30 33 16 18 1019.1 - -
28/08:26pm 21.9 - - - - ESE 28 - 15 - - 1019.1 -
28/08:00pm 21.8 - - - - ESE 28 32 15 17 1018.8 - -
28/07:30pm 21.8 - - - - ESE 32 35 17 19 1018.4 - -
28/07:26pm 21.6 - - - - ESE 32 - 17 - - 1018.5 -
28/07:00pm 21.6 - - - - ESE 35 39 19 21 1018.2 - -
28/06:30pm 21.7 - - - - ESE 32 41 17 22 1018.1 - -
28/06:26pm 22.1 - - - - ESE 30 - 16 - - 1018.2 -
28/06:00pm 21.8 - - - - SE 28 35 15 19 1017.8 - -
28/05:30pm 22.0 - - - - SE 28 35 15 19 1017.5 - -
28/05:26pm 22.0 - - - - SE 28 - 15 - - 1017.6 -
28/05:00pm 22.3 - - - - ESE 30 33 16 18 1017.5 - -
28/04:30pm 22.4 - - - - ESE 28 32 15 17 1017.4 - -
28/04:26pm 22.5 - - - - SE 28 - 15 - - 1017.5 -
28/04:00pm 22.2 - - - - SE 28 32 15 17 1017.1 - -
28/03:30pm 22.2 - - - - SE 30 33 16 18 1017.1 - -
28/03:26pm 22.2 - - - - SE 30 - 16 - - 1017.3 -
28/03:00pm 22.0 - - - - SE 32 35 17 19 1017.3 - -
28/02:30pm 22.2 - - - - SE 32 37 17 20 1017.4 - -
28/02:26pm 22.7 - - - - SE 28 - 15 - - 1017.5 -
28/02:00pm 22.5 - - - - ESE 26 30 14 16 1017.6 - -
28/01:30pm 22.5 - - - - ESE 26 30 14 16 1017.6 - -
28/01:26pm 22.5 - - - - ESE 26 - 14 - - 1017.8 -
28/01:00pm 22.7 - - - - ESE 28 30 15 16 1017.8 - -
28/12:30pm 22.7 - - - - ESE 24 26 13 14 1018.0 - -
28/12:26pm 22.5 - - - - ESE 24 - 13 - - 1018.2 -
28/12:00pm 22.6 - - - - ESE 26 30 14 16 1018.3 - -
28/11:30am 22.6 - - - - ESE 24 28 13 15 1018.8 - -
28/11:26am 22.6 - - - - ESE 24 - 13 - - 1018.9 -
28/11:00am 22.6 - - - - ESE 22 26 12 14 1019.1 - -
28/10:30am 22.7 - - - - ESE 22 26 12 14 1019.2 - -
28/10:26am 22.5 - - - - ESE 22 - 12 - - 1019.3 -
28/10:00am 22.6 - - - - ESE 20 24 11 13 1019.4 - -
28/09:30am 22.6 - - - - ESE 24 26 13 14 1019.4 - -
28/09:26am 22.5 - - - - ESE 24 - 13 - - 1019.5 -
28/09:00am 22.5 - - - - ESE 24 28 13 15 1019.5 - -
28/08:30am 22.5 - - - - ESE 26 30 14 16 1019.3 - -
28/08:26am 22.4 - - - - ESE 24 - 13 - - 1019.4 -
28/08:00am 22.5 - - - - E 24 28 13 15 1019.2 - -
28/07:30am 22.3 - - - - ESE 26 30 14 16 1018.9 - -
28/07:26am 22.4 - - - - ESE 26 - 14 - - 1019.0 -
28/07:00am 22.2 - - - - ESE 26 28 14 15 1018.5 - -
28/06:30am 22.1 - - - - ESE 24 28 13 15 1018.0 - -
28/06:26am 22.1 - - - - ESE 24 - 13 - - 1018.0 -
28/06:00am 22.0 - - - - ESE 20 24 11 13 1017.7 - -
28/05:30am 21.7 - - - - ESE 20 24 11 13 1017.4 - -
28/05:26am 21.9 - - - - ESE 20 - 11 - - 1017.5 -
28/05:00am 22.0 - - - - ESE 20 22 11 12 1017.4 - -
28/04:30am 21.9 - - - - ESE 17 19 9 10 1017.1 - -
28/04:26am 21.8 - - - - E 17 - 9 - - 1017.1 -
28/04:00am 21.8 - - - - E 15 17 8 9 1016.6 - -
28/03:30am 21.7 - - - - E 17 20 9 11 1016.4 - -
28/03:26am 21.8 - - - - ENE 17 - 9 - - 1016.4 -
28/03:00am 21.8 - - - - ENE 20 22 11 12 1015.8 - -
28/02:30am 22.1 - - - - ENE 22 26 12 14 1015.9 - -
28/02:26am 21.9 - - - - ENE 22 - 12 - - 1016.1 -
28/02:00am 22.0 - - - - E 22 26 12 14 1016.2 - -
28/01:30am 22.0 - - - - E 24 26 13 14 1016.5 - -
28/01:26am 22.0 - - - - E 22 - 12 - - 1016.6 -
28/01:00am 22.0 - - - - E 24 28 13 15 1017.0 - -
28/12:30am 21.8 - - - - E 22 26 12 14 1017.1 - -
28/12:26am 21.9 - - - - E 24 - 13 - - 1017.2 -
28/12:00am 21.9 - - - - E 26 30 14 16 1017.3 - -
 
Date/Time
EST
Temp
°C
App
Temp
°C
Dew
Point
Rel
Hum
%
Delta-T
°C
Wind Press
QNH
hPa
Press
MSL
hPa
Rain
since 9 am
mm
Dir
 
Spd
km/h
Gust
km/h
Spd
kts
Gust
kts
27/11:30pm 21.9 - - - - E 26 28 14 15 1017.6 - -
27/11:26pm 22.1 - - - - E 26 - 14 - - 1017.8 -
27/11:00pm 21.9 - - - - ESE 24 28 13 15 1017.7 - -
27/10:30pm 22.0 - - - - ESE 24 28 13 15 1017.8 - -
27/10:26pm 21.8 - - - - ESE 24 - 13 - - 1017.9 -
27/10:00pm 22.1 - - - - ESE 24 28 13 15 1017.7 - -
27/09:30pm 21.9 - - - - E 24 26 13 14 1017.5 - -
27/09:26pm 22.0 - - - - ESE 24 - 13 - - 1017.6 -
27/09:00pm 21.9 - - - - E 22 26 12 14 1017.5 - -

Other Formats:

Comma delimited format used in spreadsheet applications
http://www.bom.gov.au/fwo/IDQ60801/IDQ60801.94379.axf

JavaScript Object Notation format (JSON) in row-major order
http://www.bom.gov.au/fwo/IDQ60801/IDQ60801.94379.json